createdAt,value
2023-03-21T00:00:30.001Z,12.00
2023-03-21T00:02:56.552Z,11.95
2023-03-21T00:05:23.664Z,11.90
2023-03-21T00:07:50.631Z,11.89
2023-03-21T00:10:26.733Z,11.88
2023-03-21T00:12:59.791Z,11.87
2023-03-21T00:15:30.564Z,11.86
2023-03-21T00:18:04.398Z,11.84
2023-03-21T00:20:34.367Z,11.85
2023-03-21T00:23:01.944Z,11.87
2023-03-21T00:25:28.547Z,11.91
2023-03-21T00:28:07.484Z,11.95
2023-03-21T00:30:35.135Z,12.00
2023-03-21T00:33:12.002Z,12.01
2023-03-21T00:36:05.840Z,12.04
2023-03-21T00:38:32.709Z,12.08
2023-03-21T00:41:04.578Z,12.05
2023-03-21T00:43:34.337Z,12.05
2023-03-21T00:46:01.043Z,12.06
2023-03-21T00:48:28.172Z,12.07
2023-03-21T00:50:57.200Z,12.11
2023-03-21T00:53:23.816Z,12.10
2023-03-21T00:55:51.751Z,12.09
2023-03-21T00:58:18.484Z,12.09
2023-03-21T01:00:49.181Z,12.07
2023-03-21T01:03:24.835Z,12.05
2023-03-21T01:06:05.801Z,12.04
2023-03-21T01:08:51.734Z,12.04
2023-03-21T01:11:24.706Z,11.98
2023-03-21T01:13:59.594Z,11.92
2023-03-21T01:16:31.308Z,11.84
2023-03-21T01:18:58.434Z,11.76
2023-03-21T01:21:25.454Z,11.67
2023-03-21T01:23:52.177Z,11.52
2023-03-21T01:26:19.188Z,11.40
2023-03-21T01:28:46.296Z,11.36
2023-03-21T01:31:15.239Z,11.34
2023-03-21T01:33:41.953Z,11.41
2023-03-21T01:36:14.348Z,11.40
2023-03-21T01:38:42.976Z,11.37
2023-03-21T01:41:43.493Z,11.30
2023-03-21T01:44:15.531Z,11.18
2023-03-21T01:47:00.469Z,11.12
2023-03-21T01:49:46.268Z,11.11
2023-03-21T01:52:29.641Z,11.11
2023-03-21T01:55:04.595Z,11.00
2023-03-21T01:57:43.721Z,10.90
2023-03-21T02:00:15.647Z,10.92
2023-03-21T02:02:52.467Z,10.94
2023-03-21T02:05:38.794Z,10.93
2023-03-21T02:08:05.892Z,10.85
2023-03-21T02:10:32.903Z,10.79
2023-03-21T02:13:09.413Z,10.70
2023-03-21T02:15:38.598Z,10.63
2023-03-21T02:18:05.538Z,10.58
2023-03-21T02:21:09.740Z,10.52
2023-03-21T02:23:54.295Z,10.46
2023-03-21T02:26:42.355Z,10.46
2023-03-21T02:29:46.804Z,10.48
2023-03-21T02:32:25.359Z,10.54
2023-03-21T02:35:08.832Z,10.59
2023-03-21T02:37:40.318Z,10.57
2023-03-21T02:40:23.159Z,10.55
2023-03-21T02:43:07.212Z,10.55
2023-03-21T02:46:08.530Z,10.54
2023-03-21T02:48:50.373Z,10.51
2023-03-21T02:51:21.558Z,10.48
2023-03-21T02:54:23.668Z,10.53
2023-03-21T02:56:47.094Z,10.56
2023-03-21T02:59:16.884Z,10.57
2023-03-21T03:01:43.678Z,10.54
2023-03-21T03:04:22.808Z,10.48
2023-03-21T03:07:26.900Z,10.48
2023-03-21T03:09:59.588Z,10.47
2023-03-21T03:12:50.924Z,10.44
2023-03-21T03:15:28.498Z,10.45
2023-03-21T03:18:20.739Z,10.52
2023-03-21T03:21:08.286Z,10.56
2023-03-21T03:23:45.657Z,10.57
2023-03-21T03:26:15.894Z,10.64
2023-03-21T03:28:47.803Z,10.65
2023-03-21T03:31:21.925Z,10.64
2023-03-21T03:33:52.173Z,10.60
2023-03-21T03:36:31.477Z,10.62
2023-03-21T03:39:01.066Z,10.70
2023-03-21T03:41:29.963Z,10.73
2023-03-21T03:44:01.269Z,10.73
2023-03-21T03:46:33.505Z,10.77
2023-03-21T03:49:13.720Z,10.78
2023-03-21T03:51:54.562Z,10.78
2023-03-21T03:54:26.598Z,10.78
2023-03-21T03:56:53.853Z,10.82
2023-03-21T03:59:23.342Z,10.88
2023-03-21T04:01:49.907Z,10.89
2023-03-21T04:04:17.137Z,10.83
2023-03-21T04:06:51.442Z,10.77
2023-03-21T04:09:22.167Z,10.78
2023-03-21T04:11:51.773Z,10.77
2023-03-21T04:14:18.366Z,10.72
2023-03-21T04:16:44.947Z,10.70
2023-03-21T04:19:11.538Z,10.65
2023-03-21T04:21:39.385Z,10.57
2023-03-21T04:24:07.592Z,10.45
2023-03-21T04:26:35.925Z,10.37
2023-03-21T04:29:05.645Z,10.29
2023-03-21T04:31:34.828Z,10.21
2023-03-21T04:34:03.213Z,10.12
2023-03-21T04:36:39.235Z,10.05
2023-03-21T04:39:12.251Z,9.96
2023-03-21T04:41:44.549Z,9.88
2023-03-21T04:44:12.952Z,9.78
2023-03-21T04:46:39.882Z,9.74
2023-03-21T04:49:09.755Z,9.68
2023-03-21T04:51:37.055Z,9.65
2023-03-21T04:54:03.800Z,9.62
2023-03-21T04:56:34.049Z,9.60
2023-03-21T04:59:05.367Z,9.64
2023-03-21T05:01:32.063Z,9.71
2023-03-21T05:04:00.445Z,9.80
2023-03-21T05:06:28.078Z,9.89
2023-03-21T05:09:05.400Z,9.92
2023-03-21T05:11:35.848Z,9.90
2023-03-21T05:14:02.500Z,9.93
2023-03-21T05:16:30.899Z,9.94
2023-03-21T05:18:59.218Z,9.94
2023-03-21T05:21:29.502Z,9.99
2023-03-21T05:23:58.403Z,10.01
2023-03-21T05:26:25.763Z,10.11
2023-03-21T05:28:52.588Z,10.18
2023-03-21T05:31:20.423Z,10.28
2023-03-21T05:33:47.980Z,10.35
2023-03-21T05:36:15.414Z,10.42
2023-03-21T05:38:45.537Z,10.52
2023-03-21T05:41:18.761Z,10.59
2023-03-21T05:43:45.866Z,10.65
2023-03-21T05:46:12.686Z,10.80
2023-03-21T05:48:39.383Z,10.88
2023-03-21T05:51:06.316Z,10.99
2023-03-21T05:53:32.864Z,11.06
2023-03-21T05:55:59.444Z,11.13
2023-03-21T05:58:26.141Z,11.19
2023-03-21T06:00:52.815Z,11.20
2023-03-21T06:03:19.471Z,11.23
2023-03-21T06:05:46.324Z,11.27
2023-03-21T06:08:13.098Z,11.35
2023-03-21T06:10:39.990Z,11.41
2023-03-21T06:13:06.602Z,11.48
2023-03-21T06:15:33.492Z,11.49
2023-03-21T06:18:00.067Z,11.53
2023-03-21T06:20:26.676Z,11.57
2023-03-21T06:22:53.304Z,11.59
2023-03-21T06:25:20.169Z,11.67
2023-03-21T06:27:46.966Z,11.78
2023-03-21T06:30:14.200Z,11.95
2023-03-21T06:32:40.819Z,12.04
2023-03-21T06:35:07.722Z,12.10
2023-03-21T06:37:34.262Z,12.18
2023-03-21T06:40:01.214Z,12.20
2023-03-21T06:42:27.784Z,12.21
2023-03-21T06:44:54.320Z,12.18
2023-03-21T06:47:20.893Z,12.15
2023-03-21T06:49:47.479Z,12.14
2023-03-21T06:52:14.085Z,12.15
2023-03-21T06:54:40.651Z,12.19
2023-03-21T06:57:07.239Z,12.22
2023-03-21T06:59:33.869Z,12.28
2023-03-21T07:02:00.607Z,12.37
2023-03-21T07:04:27.680Z,12.46
2023-03-21T07:06:54.603Z,12.55
2023-03-21T07:09:24.574Z,12.62
2023-03-21T07:11:53.553Z,12.71
2023-03-21T07:14:20.560Z,12.77
2023-03-21T07:16:47.206Z,12.84
2023-03-21T07:19:14.288Z,12.92
2023-03-21T07:21:40.934Z,13.01
2023-03-21T07:24:08.016Z,13.09
2023-03-21T07:26:34.637Z,13.21
2023-03-21T07:29:01.201Z,13.34
2023-03-21T07:31:27.908Z,13.46
2023-03-21T07:33:54.496Z,13.59
2023-03-21T07:36:21.392Z,13.68
2023-03-21T07:38:47.943Z,13.81
2023-03-21T07:43:46.248Z,14.11
2023-03-21T07:46:12.996Z,14.23
2023-03-21T07:48:39.579Z,14.35
2023-03-21T07:51:06.674Z,14.45
2023-03-21T07:53:33.269Z,14.55
2023-03-21T07:55:59.824Z,14.63
2023-03-21T07:58:27.284Z,14.70
2023-03-21T08:00:55.665Z,14.84
2023-03-21T08:03:23.963Z,14.91
2023-03-21T08:05:51.143Z,15.05
2023-03-21T08:08:18.148Z,15.19
2023-03-21T08:10:44.783Z,15.26
2023-03-21T08:13:12.908Z,15.33
2023-03-21T08:15:42.134Z,15.42
2023-03-21T08:18:10.584Z,15.54
2023-03-21T08:20:37.290Z,15.60
2023-03-21T08:23:04.534Z,15.70
2023-03-21T08:25:31.510Z,15.79
2023-03-21T08:27:58.352Z,15.87
2023-03-21T08:30:28.144Z,16.03
2023-03-21T08:33:01.229Z,16.18
2023-03-21T08:35:29.488Z,16.26
2023-03-21T08:37:56.105Z,16.36
2023-03-21T08:40:22.637Z,16.48
2023-03-21T08:42:49.455Z,16.67
2023-03-21T08:45:17.328Z,16.82
2023-03-21T08:47:44.177Z,16.97
2023-03-21T08:50:13.536Z,17.08
2023-03-21T08:52:40.131Z,17.16
2023-03-21T08:55:07.199Z,17.22
2023-03-21T08:57:33.745Z,17.22
2023-03-21T09:00:00.338Z,17.29
2023-03-21T09:02:27.186Z,17.31
2023-03-21T09:04:55.030Z,17.30
2023-03-21T09:07:22.251Z,17.29
2023-03-21T09:09:58.095Z,17.33
2023-03-21T09:12:29.565Z,17.43
2023-03-21T09:14:56.332Z,17.47
2023-03-21T09:17:22.961Z,17.45
2023-03-21T09:19:50.858Z,17.52
2023-03-21T09:22:18.045Z,17.55
2023-03-21T09:24:47.706Z,17.47
2023-03-21T09:27:17.579Z,17.41
2023-03-21T09:29:45.062Z,17.45
2023-03-21T09:32:13.422Z,17.52
2023-03-21T09:34:41.246Z,17.68
2023-03-21T09:37:13.711Z,17.77
2023-03-21T09:39:41.200Z,17.71
2023-03-21T09:42:24.321Z,17.70
2023-03-21T09:44:57.612Z,17.66
2023-03-21T09:47:29.237Z,17.60
2023-03-21T09:50:13.062Z,17.71
2023-03-21T09:52:40.768Z,17.93
2023-03-21T09:55:18.927Z,18.19
2023-03-21T09:57:49.408Z,18.48
2023-03-21T10:00:25.678Z,18.75
2023-03-21T10:02:59.838Z,18.88
2023-03-21T10:05:28.794Z,18.91
2023-03-21T10:08:24.705Z,18.95
2023-03-21T10:10:55.842Z,19.12
2023-03-21T10:13:27.906Z,19.27
2023-03-21T10:16:00.234Z,19.40
2023-03-21T10:18:30.955Z,19.42
2023-03-21T10:20:58.188Z,19.46
2023-03-21T10:23:29.599Z,19.54
2023-03-21T10:26:00.649Z,19.63
2023-03-21T10:28:42.337Z,19.78
2023-03-21T10:31:21.104Z,19.84
2023-03-21T10:33:51.006Z,19.86
2023-03-21T10:36:22.960Z,19.89
2023-03-21T10:38:54.903Z,19.90
2023-03-21T10:41:21.976Z,19.94
2023-03-21T10:44:11.909Z,20.11
2023-03-21T10:46:38.730Z,20.34
2023-03-21T10:49:08.156Z,20.48
2023-03-21T10:51:39.107Z,20.53
2023-03-21T10:54:09.283Z,20.47
2023-03-21T10:56:39.129Z,20.25
2023-03-21T10:59:08.904Z,20.07
2023-03-21T11:01:39.356Z,20.01
2023-03-21T11:04:09.792Z,19.84
2023-03-21T11:06:41.788Z,19.57
2023-03-21T11:09:17.893Z,19.37
2023-03-21T11:12:10.308Z,19.29
2023-03-21T11:14:43.036Z,19.37
2023-03-21T11:17:18.389Z,19.33
2023-03-21T11:19:54.226Z,19.44
2023-03-21T11:22:24.862Z,19.48
2023-03-21T11:24:59.215Z,19.77
2023-03-21T11:27:29.502Z,19.99
2023-03-21T11:29:57.993Z,19.85
2023-03-21T11:32:43.578Z,19.95
2023-03-21T11:35:18.182Z,20.49
2023-03-21T11:37:51.161Z,21.11
2023-03-21T11:40:23.421Z,21.98
2023-03-21T11:42:55.558Z,22.73
2023-03-21T11:45:24.318Z,23.29
2023-03-21T11:47:53.965Z,23.81
2023-03-21T11:50:20.579Z,24.40
2023-03-21T11:53:02.046Z,25.09
2023-03-21T11:55:57.666Z,25.87
2023-03-21T11:58:56.275Z,26.33
2023-03-21T12:01:22.809Z,26.76
2023-03-21T12:04:34.014Z,27.20
2023-03-21T12:07:04.201Z,27.80
2023-03-21T12:09:45.209Z,28.38
2023-03-21T12:12:38.330Z,28.93
2023-03-21T12:15:24.827Z,29.04
2023-03-21T12:17:58.663Z,29.74
2023-03-21T12:20:25.233Z,30.05
2023-03-21T12:23:22.887Z,30.33
2023-03-21T12:26:08.071Z,30.78
2023-03-21T12:28:59.368Z,31.06
2023-03-21T12:31:49.235Z,30.96
2023-03-21T12:34:24.589Z,29.35
2023-03-21T12:36:59.815Z,27.77
2023-03-21T12:39:30.917Z,26.23
2023-03-21T12:42:18.508Z,24.87
2023-03-21T12:45:26.104Z,23.85
2023-03-21T12:48:03.743Z,23.43
2023-03-21T12:50:38.800Z,23.12
2023-03-21T12:53:19.842Z,22.94
2023-03-21T12:55:46.605Z,22.76
2023-03-21T12:58:22.911Z,22.47
2023-03-21T13:00:57.359Z,22.32
2023-03-21T13:03:39.969Z,22.07
2023-03-21T13:06:10.759Z,21.71
2023-03-21T13:08:42.247Z,21.48
2023-03-21T13:11:14.269Z,22.24
2023-03-21T13:14:24.199Z,23.75
2023-03-21T13:17:01.533Z,25.34
2023-03-21T13:19:39.832Z,25.93
2023-03-21T13:22:21.386Z,25.58
2023-03-21T13:24:49.948Z,24.75
2023-03-21T13:27:42.151Z,23.92
2023-03-21T13:30:14.930Z,22.99
2023-03-21T13:32:48.651Z,22.32
2023-03-21T13:35:18.376Z,21.98
2023-03-21T13:37:56.131Z,23.00
2023-03-21T13:40:27.358Z,23.17
2023-03-21T13:42:59.854Z,22.60
2023-03-21T13:45:44.887Z,22.12
2023-03-21T13:48:31.445Z,21.90
2023-03-21T13:51:20.924Z,21.69
2023-03-21T13:54:03.772Z,21.50
2023-03-21T13:56:53.476Z,22.27
2023-03-21T13:59:38.925Z,23.38
2023-03-21T14:02:21.085Z,24.66
2023-03-21T14:05:04.264Z,25.48
2023-03-21T14:07:36.713Z,24.77
2023-03-21T14:10:25.391Z,24.36
2023-03-21T14:12:53.101Z,23.77
2023-03-21T14:15:24.163Z,24.29
2023-03-21T14:17:52.883Z,25.04
2023-03-21T14:20:33.076Z,25.39
2023-03-21T14:23:00.305Z,25.87
2023-03-21T14:25:41.059Z,26.19
2023-03-21T14:28:17.714Z,26.61
2023-03-21T14:30:45.596Z,26.90
2023-03-21T14:33:22.559Z,26.90
2023-03-21T14:35:50.010Z,27.06
2023-03-21T14:38:27.659Z,26.88
2023-03-21T14:40:56.130Z,26.95
2023-03-21T14:43:24.536Z,27.02
2023-03-21T14:45:54.625Z,27.01
2023-03-21T14:48:29.137Z,26.87
2023-03-21T14:51:01.827Z,26.90
2023-03-21T14:53:35.932Z,26.85
2023-03-21T14:56:25.493Z,26.87
2023-03-21T14:58:53.594Z,27.12
2023-03-21T15:01:32.594Z,27.02
2023-03-21T15:04:01.297Z,27.25
2023-03-21T15:06:27.908Z,27.28
2023-03-21T15:08:59.862Z,27.50
2023-03-21T15:11:30.794Z,27.53
2023-03-21T15:13:59.868Z,27.42
2023-03-21T15:16:26.700Z,27.68
2023-03-21T15:18:53.604Z,27.73
2023-03-21T15:21:22.537Z,27.74
2023-03-21T15:23:53.174Z,27.87
2023-03-21T15:26:22.780Z,28.10
2023-03-21T15:28:55.478Z,28.35
2023-03-21T15:31:25.628Z,28.36
2023-03-21T15:33:53.657Z,28.13
2023-03-21T15:36:29.181Z,27.95
2023-03-21T15:38:56.296Z,27.93
2023-03-21T15:41:23.094Z,27.70
2023-03-21T15:44:10.167Z,27.25
2023-03-21T15:46:44.295Z,26.90
2023-03-21T15:49:21.137Z,26.60
2023-03-21T15:51:52.710Z,26.53
2023-03-21T15:54:29.092Z,26.19
2023-03-21T15:57:09.503Z,25.88
2023-03-21T15:59:40.997Z,25.62
2023-03-21T16:02:23.141Z,25.41
2023-03-21T16:04:57.659Z,25.45
2023-03-21T16:07:24.996Z,25.42
2023-03-21T16:09:58.733Z,25.43
2023-03-21T16:12:25.379Z,25.29
2023-03-21T16:14:51.897Z,25.15
2023-03-21T16:17:30.406Z,25.05
2023-03-21T16:19:57.140Z,24.78
2023-03-21T16:22:23.977Z,24.13
2023-03-21T16:24:50.716Z,23.27
2023-03-21T16:27:19.554Z,22.40
2023-03-21T16:29:46.346Z,21.58
2023-03-21T16:32:16.726Z,21.15
2023-03-21T16:34:43.436Z,20.64
2023-03-21T16:37:12.967Z,20.28
2023-03-21T16:39:39.560Z,19.93
2023-03-21T16:42:06.242Z,19.56
2023-03-21T16:44:33.863Z,19.36
2023-03-21T16:47:02.347Z,19.15
2023-03-21T16:49:29.288Z,19.02
2023-03-21T16:51:56.974Z,18.76
2023-03-21T16:54:23.982Z,18.57
2023-03-21T16:56:53.455Z,18.23
2023-03-21T16:59:20.716Z,18.02
2023-03-21T17:01:48.667Z,17.82
2023-03-21T17:04:18.155Z,17.63
2023-03-21T17:06:54.190Z,17.42
2023-03-21T17:09:24.115Z,17.17
2023-03-21T17:11:50.829Z,16.96
2023-03-21T17:14:18.706Z,16.77
2023-03-21T17:16:45.866Z,16.63
2023-03-21T17:19:20.618Z,16.54
2023-03-21T17:21:47.304Z,16.46
2023-03-21T17:24:14.023Z,16.40
2023-03-21T17:26:40.716Z,16.34
2023-03-21T17:29:07.461Z,16.21
2023-03-21T17:31:37.526Z,16.08
2023-03-21T17:34:04.847Z,15.90
2023-03-21T17:36:37.140Z,15.82
2023-03-21T17:39:06.610Z,15.75
2023-03-21T17:41:33.605Z,15.64
2023-03-21T17:44:00.342Z,15.54
2023-03-21T17:46:29.141Z,15.41
2023-03-21T17:48:56.786Z,15.34
2023-03-21T17:51:26.188Z,15.29
2023-03-21T17:53:52.896Z,15.20
2023-03-21T17:56:29.891Z,15.12
2023-03-21T17:59:05.359Z,15.05
2023-03-21T18:01:32.274Z,14.97
2023-03-21T18:04:02.636Z,14.93
2023-03-21T18:06:29.490Z,14.86
2023-03-21T18:08:56.214Z,14.85
2023-03-21T18:11:24.076Z,14.75
2023-03-21T18:13:51.315Z,14.71
2023-03-21T18:16:23.525Z,14.60
2023-03-21T18:18:53.750Z,14.56
2023-03-21T18:21:22.803Z,14.54
2023-03-21T18:23:49.777Z,14.42
2023-03-21T18:26:19.680Z,14.27
2023-03-21T18:29:13.723Z,14.16
2023-03-21T18:31:34.237Z,14.13
2023-03-21T18:34:00.893Z,14.12
2023-03-21T18:36:28.922Z,14.06
2023-03-21T18:38:56.842Z,14.01
2023-03-21T18:41:23.577Z,13.95
2023-03-21T18:44:15.687Z,13.92
2023-03-21T18:46:37.369Z,13.90
2023-03-21T18:49:33.483Z,13.86
2023-03-21T18:51:51.833Z,13.82
2023-03-21T18:54:18.536Z,13.79
2023-03-21T18:57:31.800Z,13.76
2023-03-21T18:59:34.721Z,13.69
2023-03-21T19:02:03.259Z,13.64
2023-03-21T19:04:30.623Z,13.66
2023-03-21T19:06:58.503Z,13.63
2023-03-21T19:09:31.246Z,13.63
2023-03-21T19:11:58.655Z,13.55
2023-03-21T19:14:25.491Z,13.48
2023-03-21T19:19:39.405Z,13.32
2023-03-21T19:22:06.320Z,13.34
2023-03-21T19:24:32.940Z,13.37
2023-03-21T19:26:59.547Z,13.38
2023-03-21T19:29:26.333Z,13.43
2023-03-21T19:31:53.110Z,13.41
2023-03-21T19:34:20.805Z,13.37
2023-03-21T19:36:51.502Z,13.34
2023-03-21T19:39:22.195Z,13.33
2023-03-21T19:41:50.187Z,13.34
2023-03-21T19:44:17.322Z,13.29
2023-03-21T19:46:44.057Z,13.19
2023-03-21T19:49:11.284Z,13.10
2023-03-21T19:51:38.009Z,12.98
2023-03-21T19:54:06.142Z,12.83
2023-03-21T19:56:34.783Z,12.72
2023-03-21T19:59:03.161Z,12.67
2023-03-21T20:01:32.312Z,12.67
2023-03-21T20:03:59.222Z,12.73
2023-03-21T20:06:26.883Z,12.71
2023-03-21T20:11:40.716Z,12.65
2023-03-21T20:14:07.436Z,12.64
2023-03-21T20:16:35.689Z,12.72
2023-03-21T20:19:08.826Z,12.76
2023-03-21T20:21:46.096Z,12.73
2023-03-21T20:24:16.400Z,12.69
2023-03-21T20:26:45.123Z,12.68
2023-03-21T20:30:05.475Z,12.64
2023-03-21T20:31:58.619Z,12.60
2023-03-21T20:34:25.352Z,12.59
2023-03-21T20:36:53.274Z,12.54
2023-03-21T20:39:19.948Z,12.44
2023-03-21T20:41:46.773Z,12.44
2023-03-21T20:44:44.848Z,12.40
2023-03-21T20:47:00.481Z,12.31
2023-03-21T20:49:28.400Z,12.30
2023-03-21T20:54:42.347Z,12.22
2023-03-21T20:57:09.129Z,12.20
2023-03-21T20:59:35.838Z,12.12
2023-03-21T21:02:03.156Z,12.00
2023-03-21T21:04:52.791Z,11.87
2023-03-21T21:07:21.005Z,11.78
2023-03-21T21:09:48.861Z,11.72
2023-03-21T21:12:19.105Z,11.60
2023-03-21T21:14:45.988Z,11.54
2023-03-21T21:20:01.671Z,11.34
2023-03-21T21:22:28.962Z,11.25
2023-03-21T21:24:55.534Z,11.19
2023-03-21T21:27:22.101Z,11.04
2023-03-21T21:29:50.006Z,10.96
2023-03-21T21:32:17.009Z,10.77
2023-03-21T21:34:43.607Z,10.69
2023-03-21T21:37:10.674Z,10.64
2023-03-21T21:39:38.545Z,10.49
2023-03-21T21:42:05.659Z,10.51
2023-03-21T21:44:32.377Z,10.54
2023-03-21T21:46:59.479Z,10.57
2023-03-21T21:49:26.881Z,10.54
2023-03-21T21:51:53.552Z,10.52
2023-03-21T21:54:20.156Z,10.42
2023-03-21T21:56:48.519Z,10.30
2023-03-21T21:59:22.032Z,10.24
2023-03-21T22:01:51.306Z,10.21
2023-03-21T22:04:19.329Z,10.16
2023-03-21T22:06:47.575Z,10.05
2023-03-21T22:09:15.879Z,10.03
2023-03-21T22:11:42.652Z,9.94
2023-03-21T22:14:09.271Z,9.92
2023-03-21T22:16:35.961Z,9.90
2023-03-21T22:19:02.587Z,9.91
2023-03-21T22:21:30.379Z,9.95
2023-03-21T22:23:57.082Z,9.93
2023-03-21T22:26:23.731Z,9.89
2023-03-21T22:28:50.510Z,9.88
2023-03-21T22:31:17.294Z,9.91
2023-03-21T22:33:44.782Z,9.92
2023-03-21T22:36:11.766Z,9.89
2023-03-21T22:38:38.380Z,9.89
2023-03-21T22:41:06.032Z,9.89
2023-03-21T22:43:34.319Z,9.89
2023-03-21T22:46:02.459Z,9.88
2023-03-21T22:48:30.244Z,9.85
2023-03-21T22:51:00.700Z,9.83
2023-03-21T22:53:27.996Z,9.81
2023-03-21T22:55:54.689Z,9.74
2023-03-21T22:58:21.379Z,9.72
2023-03-21T23:00:48.194Z,9.69
2023-03-21T23:03:16.858Z,9.60
2023-03-21T23:05:44.730Z,9.47
2023-03-21T23:08:11.647Z,9.39
2023-03-21T23:10:39.741Z,9.36
2023-03-21T23:13:06.703Z,9.26
2023-03-21T23:15:33.646Z,9.18
2023-03-21T23:18:00.292Z,9.13
2023-03-21T23:20:26.974Z,9.04
2023-03-21T23:22:53.584Z,8.95
2023-03-21T23:25:20.653Z,8.76
2023-03-21T23:27:47.694Z,8.66
2023-03-21T23:30:14.633Z,8.55
2023-03-21T23:32:41.255Z,8.49
2023-03-21T23:35:08.972Z,8.33
2023-03-21T23:37:35.592Z,8.32
2023-03-21T23:40:02.850Z,8.27
2023-03-21T23:42:30.459Z,8.24
2023-03-21T23:44:57.265Z,8.06
2023-03-21T23:47:23.935Z,8.02
2023-03-21T23:49:52.765Z,7.89
2023-03-21T23:52:19.745Z,7.73
2023-03-21T23:54:46.289Z,7.64
2023-03-21T23:57:12.952Z,7.53
2023-03-21T23:59:39.507Z,7.50
